Decoded Metar for GMFO (OUJDA in MOROCCO) (IATA:OUD) | Meteo·Mobile Aviation Weather
aviador You're here:

GMFO Decoded Metar

OUJDA in MOROCCO
Report Time2018-10-23 11:00:00
UTC Time2018-10-23 11:44:07
Flight Rules vfr VFR
Wind320° at 03 kt
W.Decomp.*RWY 31: 2.9 kt HW 0.6 kt RCW
RWY 24: 0.5 kt HW 3.0 kt RCW
W.Rank320° ranks 8
Current wind is below 320° avg. (7.1)
Visibility8000 m
Phenomena:N/A
Clouds:Scattered 020 Hf
Broken 100 Hf
Expected CloudBase > 2,000 ft AGL from Temp-Dew spread
Ceiling10,000 ft
Temp21°C (ISA +9)
Dew Point16°C (73% RH)
QNH1024 hPa
Density Alt2,477 ft
Elevation1,542 ft
Report Wrong Elevation
Raw Report
GMFO 231100Z 32003KT 320V080 8000 SCT020 BKN100 21/16 Q1024
NOSIG=

Extra information for GMFO:More info

Metar Taf Metar & Taf Last 4 Metars F.Rules Stats Wind Profile Meteogram Temp Stats Airport Information Weather charts Add Link Nearby VenuesMetar ALERT Operation Metar Decoded Social comments